createdAt,value
2022-08-21T00:00:43.922Z,0.00
2022-08-21T00:01:39.957Z,0.00
2022-08-21T00:02:39.973Z,0.00
2022-08-21T00:03:39.887Z,0.00
2022-08-21T00:04:39.836Z,0.00
2022-08-21T00:05:39.792Z,0.00
2022-08-21T00:06:39.757Z,0.00
2022-08-21T00:07:39.716Z,0.00
2022-08-21T00:08:39.677Z,0.00
2022-08-21T00:09:39.660Z,0.00
2022-08-21T00:10:39.598Z,0.00
2022-08-21T00:11:39.561Z,0.00
2022-08-21T00:12:39.519Z,0.00
2022-08-21T00:13:39.499Z,0.00
2022-08-21T00:14:39.460Z,0.00
2022-08-21T00:15:39.397Z,0.00
2022-08-21T00:16:39.356Z,0.00
2022-08-21T00:17:39.315Z,0.00
2022-08-21T00:18:39.277Z,0.00
2022-08-21T00:19:39.235Z,0.00
2022-08-21T00:20:39.394Z,0.00
2022-08-21T00:21:39.156Z,0.00
2022-08-21T00:22:39.116Z,0.00
2022-08-21T00:23:39.080Z,0.00
2022-08-21T00:24:39.038Z,0.00
2022-08-21T00:25:38.998Z,0.00
2022-08-21T00:26:38.981Z,0.00
2022-08-21T00:27:38.944Z,0.00
2022-08-21T00:28:38.876Z,0.00
2022-08-21T00:29:38.831Z,0.00
2022-08-21T00:30:38.795Z,0.00
2022-08-21T00:31:38.756Z,0.00
2022-08-21T00:32:38.715Z,0.00
2022-08-21T00:33:38.690Z,0.00
2022-08-21T00:34:38.635Z,0.00
2022-08-21T00:35:38.591Z,0.00
2022-08-21T00:36:38.552Z,0.00
2022-08-21T00:37:38.511Z,0.00
2022-08-21T00:38:38.475Z,0.00
2022-08-21T00:39:38.484Z,0.00
2022-08-21T00:40:38.392Z,0.00
2022-08-21T00:41:39.027Z,0.00
2022-08-21T00:42:38.313Z,0.00
2022-08-21T00:43:38.272Z,0.00
2022-08-21T00:44:38.227Z,0.00
2022-08-21T00:45:38.201Z,0.00
2022-08-21T00:46:38.145Z,0.00
2022-08-21T00:47:38.112Z,0.00
2022-08-21T00:48:38.070Z,0.00
2022-08-21T00:49:38.035Z,0.00
2022-08-21T00:50:37.986Z,0.00
2022-08-21T00:51:38.432Z,0.00
2022-08-21T00:52:37.904Z,0.00
2022-08-21T00:53:37.865Z,0.00
2022-08-21T00:54:37.826Z,0.00
2022-08-21T00:55:37.789Z,0.00
2022-08-21T00:56:37.763Z,0.00
2022-08-21T00:57:37.704Z,0.00
2022-08-21T00:58:37.666Z,0.00
2022-08-21T00:59:37.626Z,0.00
2022-08-21T01:00:37.584Z,0.00
2022-08-21T01:01:37.582Z,0.00
2022-08-21T01:02:37.533Z,0.00
2022-08-21T01:03:37.466Z,0.00
2022-08-21T01:04:37.426Z,0.00
2022-08-21T01:05:37.383Z,0.00
2022-08-21T01:06:37.348Z,0.00
2022-08-21T01:07:37.304Z,0.00
2022-08-21T01:08:37.289Z,0.00
2022-08-21T01:09:37.224Z,0.00
2022-08-21T01:10:37.186Z,0.00
2022-08-21T01:11:37.143Z,0.00
2022-08-21T01:12:37.101Z,0.00
2022-08-21T01:13:37.064Z,0.00
2022-08-21T01:14:37.034Z,0.00
2022-08-21T01:15:36.980Z,0.00
2022-08-21T01:16:36.942Z,0.00
2022-08-21T01:17:36.907Z,0.00
2022-08-21T01:18:36.864Z,0.00
2022-08-21T01:19:36.824Z,0.00
2022-08-21T01:20:36.825Z,0.00
2022-08-21T01:21:36.739Z,0.00
2022-08-21T01:22:36.705Z,0.00
2022-08-21T01:23:36.672Z,0.00
2022-08-21T01:24:36.626Z,0.00
2022-08-21T01:25:36.587Z,0.00
2022-08-21T01:26:36.563Z,0.00
2022-08-21T01:27:36.499Z,0.00
2022-08-21T01:28:36.465Z,0.00
2022-08-21T01:29:36.425Z,0.00
2022-08-21T01:30:36.381Z,0.00
2022-08-21T01:31:36.339Z,0.00
2022-08-21T01:32:36.316Z,0.00
2022-08-21T01:33:36.259Z,0.00
2022-08-21T01:34:36.232Z,0.00
2022-08-21T01:35:36.182Z,0.00
2022-08-21T01:36:36.144Z,0.00
2022-08-21T01:37:36.126Z,0.00
2022-08-21T01:38:36.060Z,0.00
2022-08-21T01:39:36.105Z,0.00
2022-08-21T01:40:35.982Z,0.00
2022-08-21T01:41:35.950Z,0.00
2022-08-21T01:42:35.908Z,0.00
2022-08-21T01:43:39.471Z,0.00
2022-08-21T01:44:35.825Z,0.00
2022-08-21T01:45:35.781Z,0.00
2022-08-21T01:46:35.739Z,0.00
2022-08-21T01:47:35.705Z,0.00
2022-08-21T01:48:35.667Z,0.00
2022-08-21T01:49:35.630Z,0.00
2022-08-21T01:50:35.581Z,0.00
2022-08-21T01:51:35.538Z,0.00
2022-08-21T01:52:35.514Z,0.00
2022-08-21T01:53:35.463Z,0.00
2022-08-21T01:54:35.419Z,0.00
2022-08-21T01:55:35.383Z,0.00
2022-08-21T01:56:35.339Z,0.00
2022-08-21T01:57:35.293Z,0.00
2022-08-21T01:58:35.290Z,0.00
2022-08-21T01:59:35.222Z,0.00
2022-08-21T02:00:35.213Z,0.00
2022-08-21T02:01:35.141Z,0.00
2022-08-21T02:02:35.098Z,0.00
2022-08-21T02:03:35.883Z,0.00
2022-08-21T02:04:35.039Z,0.00
2022-08-21T02:05:34.981Z,0.00
2022-08-21T02:06:34.942Z,0.00
2022-08-21T02:07:34.900Z,0.00
2022-08-21T02:08:34.859Z,0.00
2022-08-21T02:09:34.819Z,0.00
2022-08-21T02:10:34.810Z,0.00
2022-08-21T02:11:34.742Z,0.00
2022-08-21T02:12:34.701Z,0.00
2022-08-21T02:13:34.657Z,0.00
2022-08-21T02:14:34.621Z,0.00
2022-08-21T02:15:34.578Z,0.00
2022-08-21T02:16:34.558Z,0.00
2022-08-21T02:17:34.496Z,0.00
2022-08-21T02:18:34.455Z,0.00
2022-08-21T02:19:40.005Z,0.00
2022-08-21T02:20:34.380Z,0.00
2022-08-21T02:21:34.364Z,0.00
2022-08-21T02:22:34.296Z,0.00
2022-08-21T02:23:34.255Z,0.00
2022-08-21T02:24:34.216Z,0.00
2022-08-21T02:25:34.179Z,0.00
2022-08-21T02:26:34.140Z,0.00
2022-08-21T02:27:34.131Z,0.00
2022-08-21T02:28:34.053Z,0.00
2022-08-21T02:29:34.015Z,0.00
2022-08-21T02:30:33.972Z,0.00
2022-08-21T02:31:33.938Z,0.00
2022-08-21T02:32:33.895Z,0.00
2022-08-21T02:33:33.873Z,0.00
2022-08-21T02:34:33.810Z,0.00
2022-08-21T02:35:33.773Z,0.00
2022-08-21T02:36:33.735Z,0.00
2022-08-21T02:37:33.689Z,0.00
2022-08-21T02:38:33.651Z,0.00
2022-08-21T02:39:33.633Z,0.00
2022-08-21T02:40:33.578Z,0.00
2022-08-21T02:41:33.531Z,0.00
2022-08-21T02:42:33.491Z,0.00
2022-08-21T02:43:33.449Z,0.00
2022-08-21T02:44:34.779Z,0.00
2022-08-21T02:45:33.380Z,0.00
2022-08-21T02:46:33.331Z,0.00
2022-08-21T02:47:33.298Z,0.00
2022-08-21T02:48:33.255Z,0.00
2022-08-21T02:49:33.229Z,0.00
2022-08-21T02:50:33.171Z,0.00
2022-08-21T02:51:33.134Z,0.00
2022-08-21T02:52:33.089Z,0.00
2022-08-21T02:53:33.048Z,0.00
2022-08-21T02:54:33.006Z,0.00
2022-08-21T02:55:32.993Z,0.00
2022-08-21T02:56:32.931Z,0.00
2022-08-21T02:57:32.883Z,0.00
2022-08-21T02:58:32.844Z,0.00
2022-08-21T02:59:32.809Z,0.00
2022-08-21T03:00:32.766Z,0.00
2022-08-21T03:01:32.817Z,0.00
2022-08-21T03:02:32.704Z,0.00
2022-08-21T03:03:32.642Z,0.00
2022-08-21T03:04:32.605Z,0.00
2022-08-21T03:05:32.565Z,0.00
2022-08-21T03:06:32.521Z,0.00
2022-08-21T03:07:32.483Z,0.00
2022-08-21T03:08:32.475Z,0.00
2022-08-21T03:09:32.401Z,0.00
2022-08-21T03:10:32.359Z,0.00
2022-08-21T03:11:32.324Z,0.00
2022-08-21T03:12:32.277Z,0.00
2022-08-21T03:13:32.246Z,0.00
2022-08-21T03:14:32.216Z,0.00
2022-08-21T03:15:32.158Z,0.00
2022-08-21T03:16:34.857Z,0.00
2022-08-21T03:17:32.076Z,0.00
2022-08-21T03:18:32.034Z,0.00
2022-08-21T03:19:31.997Z,0.00
2022-08-21T03:20:31.978Z,0.00
2022-08-21T03:21:31.916Z,0.00
2022-08-21T03:22:31.874Z,0.00
2022-08-21T03:23:32.554Z,0.00
2022-08-21T03:24:31.796Z,0.00
2022-08-21T03:25:40.525Z,0.00
2022-08-21T03:26:31.738Z,0.00
2022-08-21T03:27:31.672Z,0.00
2022-08-21T03:28:31.630Z,0.00
2022-08-21T03:29:31.594Z,0.00
2022-08-21T03:30:31.552Z,0.00
2022-08-21T03:31:31.516Z,0.00
2022-08-21T03:32:31.514Z,0.00
2022-08-21T03:33:31.427Z,0.00
2022-08-21T03:34:31.390Z,0.00
2022-08-21T03:35:31.352Z,0.00
2022-08-21T03:36:31.309Z,0.00
2022-08-21T03:37:31.270Z,0.00
2022-08-21T03:38:31.240Z,0.00
2022-08-21T03:39:31.208Z,0.00
2022-08-21T03:40:31.148Z,0.00
2022-08-21T03:41:31.106Z,0.00
2022-08-21T03:42:31.067Z,0.00
2022-08-21T03:43:32.116Z,0.00
2022-08-21T03:44:30.987Z,0.00
2022-08-21T03:45:30.959Z,0.00
2022-08-21T03:46:30.905Z,0.00
2022-08-21T03:47:30.867Z,0.00
2022-08-21T03:48:30.825Z,0.00
2022-08-21T03:49:30.806Z,0.00
2022-08-21T03:50:30.747Z,0.00
2022-08-21T03:51:30.706Z,0.00
2022-08-21T03:52:30.660Z,0.00
2022-08-21T03:53:30.645Z,0.00
2022-08-21T03:54:30.583Z,0.00
2022-08-21T03:55:30.545Z,0.00
2022-08-21T03:56:30.506Z,0.00
2022-08-21T03:57:30.465Z,0.00
2022-08-21T03:58:30.425Z,0.00
2022-08-21T03:59:30.400Z,0.00
2022-08-21T04:00:30.344Z,0.00
2022-08-21T04:01:30.357Z,0.00
2022-08-21T04:02:30.267Z,0.00
2022-08-21T04:03:30.218Z,0.00
2022-08-21T04:04:30.203Z,0.00
2022-08-21T04:05:30.143Z,0.00
2022-08-21T04:06:32.496Z,0.00
2022-08-21T04:07:30.062Z,0.00
2022-08-21T04:08:30.022Z,0.00
2022-08-21T04:09:29.978Z,0.00
2022-08-21T04:10:29.953Z,0.00
2022-08-21T04:11:29.897Z,0.00
2022-08-21T04:12:29.858Z,0.00
2022-08-21T04:13:29.824Z,0.00
2022-08-21T04:14:29.779Z,0.00
2022-08-21T04:15:29.737Z,0.00
2022-08-21T04:16:29.710Z,0.00
2022-08-21T04:17:29.656Z,0.00
2022-08-21T04:18:29.619Z,0.00
2022-08-21T04:19:29.575Z,0.00
2022-08-21T04:20:29.541Z,0.00
2022-08-21T04:21:29.497Z,0.00
2022-08-21T04:22:29.473Z,0.00
2022-08-21T04:23:29.414Z,0.00
2022-08-21T04:24:30.032Z,0.00
2022-08-21T04:25:29.338Z,0.00
2022-08-21T04:26:29.298Z,5.63
2022-08-21T04:27:29.261Z,5.63
2022-08-21T04:28:30.443Z,5.63
2022-08-21T04:29:29.172Z,5.63
2022-08-21T04:30:29.145Z,5.63
2022-08-21T04:31:29.098Z,5.63
2022-08-21T04:32:29.056Z,11.25
2022-08-21T04:33:29.013Z,11.25
2022-08-21T04:34:28.999Z,11.25
2022-08-21T04:35:28.957Z,11.25
2022-08-21T04:36:28.892Z,16.88
2022-08-21T04:37:28.858Z,16.88
2022-08-21T04:38:34.888Z,16.88
2022-08-21T04:39:29.647Z,16.88
2022-08-21T04:40:28.787Z,22.50
2022-08-21T04:41:28.695Z,22.50
2022-08-21T04:42:28.649Z,22.50
2022-08-21T04:43:28.613Z,22.50
2022-08-21T04:44:28.573Z,22.50
2022-08-21T04:45:28.545Z,22.50
2022-08-21T04:46:28.491Z,28.13
2022-08-21T04:47:50.465Z,28.13
2022-08-21T04:48:28.426Z,33.75
2022-08-21T04:49:28.371Z,33.75
2022-08-21T04:50:28.327Z,33.75
2022-08-21T04:51:28.292Z,39.38
2022-08-21T04:52:28.246Z,39.38
2022-08-21T04:53:28.211Z,39.38
2022-08-21T04:54:28.194Z,45.00
2022-08-21T04:55:28.126Z,45.00
2022-08-21T04:56:28.089Z,45.00
2022-08-21T04:57:39.720Z,50.63
2022-08-21T04:58:28.006Z,50.63
2022-08-21T04:59:27.968Z,50.63
2022-08-21T05:00:27.950Z,50.63
2022-08-21T05:01:27.967Z,56.25
2022-08-21T05:02:27.845Z,56.25
2022-08-21T05:03:27.805Z,61.88
2022-08-21T05:04:27.765Z,67.50
2022-08-21T05:05:27.724Z,73.13
2022-08-21T05:06:27.709Z,78.75
2022-08-21T05:07:41.902Z,78.75
2022-08-21T05:08:27.604Z,84.38
2022-08-21T05:09:27.564Z,84.38
2022-08-21T05:10:27.524Z,84.38
2022-08-21T05:11:27.483Z,84.38
2022-08-21T05:12:27.460Z,84.38
2022-08-21T05:13:27.404Z,84.38
2022-08-21T05:14:27.360Z,84.38
2022-08-21T05:15:27.326Z,84.38
2022-08-21T05:16:36.852Z,90.00
2022-08-21T05:17:27.257Z,95.63
2022-08-21T05:18:27.208Z,101.25
2022-08-21T05:19:27.158Z,106.88
2022-08-21T05:20:27.123Z,118.13
2022-08-21T05:21:27.079Z,129.38
2022-08-21T05:22:27.037Z,129.38
2022-08-21T05:23:27.012Z,135.00
2022-08-21T05:24:26.956Z,135.00
2022-08-21T05:25:28.181Z,140.63
2022-08-21T05:26:26.878Z,135.00
2022-08-21T05:27:26.843Z,140.63
2022-08-21T05:28:26.911Z,140.63
2022-08-21T05:29:26.773Z,135.00
2022-08-21T05:30:26.715Z,146.25
2022-08-21T05:31:26.676Z,151.88
2022-08-21T05:32:26.636Z,157.50
2022-08-21T05:33:26.598Z,163.13
2022-08-21T05:34:26.555Z,174.38
2022-08-21T05:35:26.536Z,185.63
2022-08-21T05:36:26.480Z,185.63
2022-08-21T05:37:26.434Z,191.25
2022-08-21T05:38:26.395Z,208.13
2022-08-21T05:39:26.359Z,225.00
2022-08-21T05:40:26.360Z,230.63
2022-08-21T05:41:26.297Z,236.25
2022-08-21T05:42:26.232Z,241.88
2022-08-21T05:43:26.196Z,253.13
2022-08-21T05:44:26.154Z,270.00
2022-08-21T05:45:41.870Z,275.63
2022-08-21T05:46:26.076Z,270.00
2022-08-21T05:47:26.046Z,270.00
2022-08-21T05:48:26.016Z,258.75
2022-08-21T05:49:25.951Z,264.38
2022-08-21T05:50:26.953Z,281.25
2022-08-21T05:51:25.878Z,303.75
2022-08-21T05:52:25.830Z,326.25
2022-08-21T05:53:25.788Z,354.38
2022-08-21T05:54:25.766Z,354.38
2022-08-21T05:55:25.714Z,354.38
2022-08-21T05:56:25.698Z,337.50
2022-08-21T05:57:25.632Z,326.25
2022-08-21T05:58:25.595Z,320.63
2022-08-21T05:59:25.549Z,320.63
2022-08-21T06:03:46.584Z,365.63
2022-08-21T06:04:46.529Z,365.63
2022-08-21T06:05:46.633Z,348.75
2022-08-21T06:06:46.444Z,320.63
2022-08-21T06:07:46.427Z,292.50
2022-08-21T06:08:46.365Z,275.63
2022-08-21T06:09:46.327Z,270.00
2022-08-21T06:10:46.283Z,264.38
2022-08-21T06:11:46.246Z,270.00
2022-08-21T06:12:46.203Z,281.25
2022-08-21T06:13:46.174Z,292.50
2022-08-21T06:14:46.122Z,292.50
2022-08-21T06:15:46.091Z,292.50
2022-08-21T06:16:46.045Z,286.88
2022-08-21T06:17:46.011Z,292.50
2022-08-21T06:18:45.980Z,309.38
2022-08-21T06:19:45.924Z,326.25
2022-08-21T06:20:45.881Z,326.25
2022-08-21T06:21:45.841Z,343.13
2022-08-21T06:22:45.803Z,365.63
2022-08-21T06:23:45.781Z,388.13
2022-08-21T06:24:45.766Z,405.00
2022-08-21T06:25:45.684Z,405.00
2022-08-21T06:26:45.647Z,405.00
2022-08-21T06:27:45.610Z,405.00
2022-08-21T06:28:45.567Z,421.88
2022-08-21T06:29:45.526Z,444.38
2022-08-21T06:30:45.506Z,472.50
2022-08-21T06:31:45.448Z,495.00
2022-08-21T06:32:45.413Z,511.88
2022-08-21T06:33:45.364Z,506.25
2022-08-21T06:34:45.330Z,416.25
2022-08-21T06:35:45.287Z,427.50
2022-08-21T06:36:45.264Z,540.00
2022-08-21T06:37:45.210Z,663.75
2022-08-21T06:38:50.902Z,742.50
2022-08-21T06:39:45.511Z,748.13
2022-08-21T06:40:47.242Z,703.13
2022-08-21T06:41:45.062Z,652.50
2022-08-21T06:42:45.011Z,618.75
2022-08-21T06:43:44.976Z,585.00
2022-08-21T06:44:44.940Z,551.25
2022-08-21T06:45:44.899Z,528.75
2022-08-21T06:46:44.903Z,500.63
2022-08-21T06:47:44.821Z,478.13
2022-08-21T06:48:44.785Z,466.88
2022-08-21T06:49:44.738Z,450.00
2022-08-21T06:50:44.705Z,433.13
2022-08-21T06:51:44.685Z,410.63
2022-08-21T06:52:44.748Z,399.38
2022-08-21T06:53:44.657Z,399.38
2022-08-21T06:54:44.557Z,416.25
2022-08-21T06:55:44.516Z,416.25
2022-08-21T06:56:44.471Z,416.25
2022-08-21T06:57:52.518Z,427.50
2022-08-21T06:58:44.421Z,416.25
2022-08-21T06:59:44.353Z,388.13
2022-08-21T07:00:44.320Z,382.50
2022-08-21T07:01:44.398Z,371.25
2022-08-21T07:02:44.234Z,354.38
2022-08-21T07:03:44.199Z,337.50
2022-08-21T07:04:44.184Z,337.50
2022-08-21T07:05:44.117Z,348.75
2022-08-21T07:06:44.086Z,354.38
2022-08-21T07:07:44.040Z,371.25
2022-08-21T07:08:44.037Z,371.25
2022-08-21T07:09:43.966Z,360.00
2022-08-21T07:10:43.922Z,354.38
2022-08-21T07:11:47.562Z,343.13
2022-08-21T07:12:43.843Z,343.13
2022-08-21T07:13:43.803Z,331.88
2022-08-21T07:14:43.792Z,320.63
2022-08-21T07:15:43.726Z,331.88
2022-08-21T07:16:43.701Z,360.00
2022-08-21T07:17:43.650Z,365.63
2022-08-21T07:18:43.616Z,382.50
2022-08-21T07:19:43.574Z,405.00
2022-08-21T07:20:43.553Z,405.00
2022-08-21T07:21:43.496Z,410.63
2022-08-21T07:22:43.453Z,421.88
2022-08-21T07:23:43.417Z,427.50
2022-08-21T07:24:43.373Z,405.00
2022-08-21T07:25:43.341Z,388.13
2022-08-21T07:26:43.314Z,410.63
2022-08-21T07:27:43.261Z,438.75
2022-08-21T07:28:43.221Z,433.13
2022-08-21T07:29:43.197Z,421.88
2022-08-21T07:30:43.143Z,438.75
2022-08-21T07:31:43.101Z,472.50
2022-08-21T07:32:43.064Z,511.88
2022-08-21T07:33:43.031Z,517.50
2022-08-21T07:34:42.983Z,511.88
2022-08-21T07:35:42.961Z,495.00
2022-08-21T07:36:42.932Z,489.38
2022-08-21T07:37:42.872Z,483.75
2022-08-21T07:38:42.843Z,483.75
2022-08-21T07:39:42.876Z,478.13
2022-08-21T07:40:42.754Z,466.88
2022-08-21T07:41:42.713Z,483.75
2022-08-21T07:42:42.691Z,500.63
2022-08-21T07:43:45.973Z,534.38
2022-08-21T07:44:42.594Z,596.25
2022-08-21T07:45:42.555Z,669.38
2022-08-21T07:46:42.522Z,748.13
2022-08-21T07:47:43.110Z,815.63
2022-08-21T07:48:42.457Z,832.50
2022-08-21T07:49:42.421Z,798.75
2022-08-21T07:50:42.363Z,776.25
2022-08-21T07:51:42.326Z,731.25
2022-08-21T07:52:42.291Z,691.88
2022-08-21T07:53:42.248Z,624.38
2022-08-21T07:54:42.208Z,540.00
2022-08-21T07:55:42.202Z,489.38
2022-08-21T07:56:42.134Z,466.88
2022-08-21T07:57:42.094Z,461.25
2022-08-21T07:58:42.055Z,455.63
2022-08-21T07:59:42.021Z,461.25
2022-08-21T08:00:41.981Z,461.25
2022-08-21T08:01:42.064Z,450.00
2022-08-21T08:02:41.936Z,433.13
2022-08-21T08:03:41.863Z,427.50
2022-08-21T08:04:50.573Z,421.88
2022-08-21T08:05:41.787Z,410.63
2022-08-21T08:06:41.754Z,416.25
2022-08-21T08:07:41.709Z,433.13
2022-08-21T08:08:41.811Z,461.25
2022-08-21T08:09:41.630Z,478.13
2022-08-21T08:10:41.591Z,495.00
2022-08-21T08:11:41.555Z,517.50
2022-08-21T08:12:41.520Z,545.63
2022-08-21T08:13:41.478Z,568.13
2022-08-21T08:14:41.452Z,585.00
2022-08-21T08:15:41.402Z,596.25
2022-08-21T08:16:41.358Z,613.13
2022-08-21T08:17:41.321Z,613.13
2022-08-21T08:18:41.282Z,618.75
2022-08-21T08:19:41.263Z,624.38
2022-08-21T08:20:41.204Z,624.38
2022-08-21T08:21:41.166Z,641.25
2022-08-21T08:22:41.128Z,686.25
2022-08-21T08:23:41.090Z,753.75
2022-08-21T08:24:41.053Z,821.25
2022-08-21T08:25:41.026Z,849.38
2022-08-21T08:26:40.974Z,855.00
2022-08-21T08:27:40.943Z,866.25
2022-08-21T08:28:40.899Z,855.00
2022-08-21T08:29:40.861Z,843.75
2022-08-21T08:30:40.825Z,877.50
2022-08-21T08:31:40.804Z,961.88
2022-08-21T08:32:40.747Z,1029.38
2022-08-21T08:33:40.712Z,1057.50
2022-08-21T08:34:40.667Z,1046.25
2022-08-21T08:35:40.639Z,1063.13
2022-08-21T08:36:40.606Z,1153.13
2022-08-21T08:37:40.764Z,1350.00
2022-08-21T08:38:40.520Z,1569.38
2022-08-21T08:39:40.507Z,1670.63
2022-08-21T08:40:43.011Z,1642.50
2022-08-21T08:41:40.402Z,1575.00
2022-08-21T08:42:40.372Z,1524.38
2022-08-21T08:43:40.363Z,1490.63
2022-08-21T08:44:40.296Z,1462.50
2022-08-21T08:45:40.254Z,1451.25
2022-08-21T08:46:40.219Z,1456.88
2022-08-21T08:47:40.185Z,1451.25
2022-08-21T08:48:40.143Z,1451.25
2022-08-21T08:49:40.289Z,1530.00
2022-08-21T08:50:40.070Z,1665.00
2022-08-21T08:51:40.040Z,1805.63
2022-08-21T08:52:39.998Z,1811.25
2022-08-21T08:53:39.964Z,1749.38
2022-08-21T08:54:39.927Z,1884.38
2022-08-21T08:55:39.923Z,2041.88
2022-08-21T08:56:39.859Z,2103.75
2022-08-21T08:57:39.821Z,1845.00
2022-08-21T08:58:39.784Z,1648.13
2022-08-21T08:59:39.748Z,1625.63
2022-08-21T09:00:39.720Z,1738.13
2022-08-21T09:01:39.858Z,2086.88
2022-08-21T09:02:40.289Z,2536.88
2022-08-21T09:03:39.606Z,2250.00
2022-08-21T09:04:39.572Z,2143.13
2022-08-21T09:05:39.534Z,2238.75
2022-08-21T09:06:39.506Z,2092.50
2022-08-21T09:07:39.647Z,1957.50
2022-08-21T09:08:39.434Z,2019.38
2022-08-21T09:09:39.399Z,2131.88
2022-08-21T09:10:39.366Z,1895.63
2022-08-21T09:11:39.331Z,2250.00
2022-08-21T09:12:39.301Z,2604.38
2022-08-21T09:13:39.287Z,4275.00
2022-08-21T09:14:39.234Z,4151.25
2022-08-21T09:15:39.198Z,4826.25
2022-08-21T09:16:39.167Z,2238.75
2022-08-21T09:17:39.137Z,2030.63
2022-08-21T09:18:39.113Z,2137.50
2022-08-21T09:19:39.069Z,2098.13
2022-08-21T09:20:39.035Z,2182.50
2022-08-21T09:21:39.003Z,1816.88
2022-08-21T09:22:38.972Z,1968.75
2022-08-21T09:23:38.964Z,2047.50
2022-08-21T09:24:38.907Z,1665.00
2022-08-21T09:25:38.874Z,1681.88
2022-08-21T09:26:38.847Z,1749.38
2022-08-21T09:27:38.816Z,1822.50
2022-08-21T09:28:38.782Z,2098.13
2022-08-21T09:29:38.776Z,5101.88
2022-08-21T09:30:38.716Z,2728.13
2022-08-21T09:31:38.686Z,1681.88
2022-08-21T09:32:38.675Z,3853.13
2022-08-21T09:33:38.614Z,4888.13
2022-08-21T09:34:38.586Z,3256.88
2022-08-21T09:35:38.569Z,5096.25
2022-08-21T09:36:38.517Z,2075.63
2022-08-21T09:37:38.485Z,2671.88
2022-08-21T09:38:38.458Z,5073.75
2022-08-21T09:39:40.130Z,4837.50
2022-08-21T09:40:38.487Z,2227.50
2022-08-21T09:41:38.390Z,5220.00
2022-08-21T09:42:38.329Z,5484.38
2022-08-21T09:43:38.303Z,1783.13
2022-08-21T09:44:38.272Z,1771.88
2022-08-21T09:45:38.245Z,2165.63
2022-08-21T09:46:38.207Z,6153.75
2022-08-21T09:47:38.198Z,5439.38
2022-08-21T09:48:38.144Z,5782.50
2022-08-21T09:49:38.117Z,5653.13
2022-08-21T09:50:38.090Z,5557.50
2022-08-21T09:51:38.054Z,3425.63
2022-08-21T09:52:38.035Z,5771.25
2022-08-21T09:53:38.020Z,4798.13
2022-08-21T09:54:37.967Z,3639.38
2022-08-21T09:55:37.940Z,4809.38
2022-08-21T09:56:37.918Z,5703.75
2022-08-21T09:57:37.885Z,6131.25
2022-08-21T09:58:37.860Z,5793.75
2022-08-21T09:59:38.019Z,5175.00
2022-08-21T10:00:37.875Z,5439.38
2022-08-21T10:01:37.778Z,4961.25
2022-08-21T10:02:37.746Z,5310.00
2022-08-21T10:03:37.719Z,2880.00
2022-08-21T10:04:37.692Z,4353.75
2022-08-21T10:05:37.680Z,5917.50
2022-08-21T10:06:37.637Z,5731.88
2022-08-21T10:07:37.610Z,5625.00
2022-08-21T10:08:37.592Z,5450.63
2022-08-21T10:09:37.560Z,5495.63
2022-08-21T10:10:37.541Z,3448.13
2022-08-21T10:11:37.505Z,4803.75
2022-08-21T10:12:37.479Z,5152.50
2022-08-21T10:13:37.451Z,5236.88
2022-08-21T10:14:37.421Z,5236.88
2022-08-21T10:15:37.401Z,5428.13
2022-08-21T10:16:37.393Z,5630.63
2022-08-21T10:17:37.349Z,5810.63
2022-08-21T10:18:37.318Z,5928.75
2022-08-21T10:19:37.298Z,5647.50
2022-08-21T10:20:37.267Z,5450.63
2022-08-21T10:21:37.244Z,5473.13
2022-08-21T10:22:37.242Z,5259.38
2022-08-21T10:23:37.193Z,5242.50
2022-08-21T10:24:37.164Z,5338.13
2022-08-21T10:25:37.139Z,5371.88
2022-08-21T10:26:37.139Z,5394.38
2022-08-21T10:27:37.091Z,5349.38
2022-08-21T10:28:37.088Z,5191.88
2022-08-21T10:29:37.046Z,5276.25
2022-08-21T10:30:37.017Z,5771.25
2022-08-21T10:31:36.992Z,5793.75
2022-08-21T10:32:36.973Z,5928.75
2022-08-21T10:33:36.942Z,3594.38
2022-08-21T10:34:36.932Z,2598.75
2022-08-21T10:35:36.897Z,1670.63
2022-08-21T10:36:36.869Z,1254.38
2022-08-21T10:37:36.860Z,1113.75
2022-08-21T10:38:52.712Z,4089.38
2022-08-21T10:39:36.885Z,1366.88
2022-08-21T10:40:36.767Z,1175.63
2022-08-21T10:41:36.738Z,1693.13
2022-08-21T10:44:08.733Z,1186.88
2022-08-21T10:45:08.718Z,1186.88
2022-08-21T10:46:08.669Z,1440.00
2022-08-21T10:47:08.640Z,1125.00
2022-08-21T10:48:08.617Z,945.00
2022-08-21T10:49:08.583Z,928.13
2022-08-21T10:50:08.569Z,1012.50
2022-08-21T10:51:08.550Z,1046.25
2022-08-21T10:52:08.505Z,1406.25
2022-08-21T10:53:08.470Z,1321.88
2022-08-21T10:54:08.451Z,1546.88
2022-08-21T10:55:08.409Z,5889.38
2022-08-21T10:56:08.382Z,1018.13
2022-08-21T10:57:08.375Z,1333.13
2022-08-21T10:58:08.317Z,2143.13
2022-08-21T10:59:08.290Z,5810.63
2022-08-21T11:00:08.260Z,2593.13
2022-08-21T11:01:08.255Z,1074.38
2022-08-21T11:02:08.201Z,1338.75
2022-08-21T11:03:08.194Z,4089.38
2022-08-21T11:04:08.138Z,5090.63
2022-08-21T11:05:08.107Z,5265.00
2022-08-21T11:06:08.080Z,5422.50
2022-08-21T11:07:08.773Z,5630.63
2022-08-21T11:08:08.021Z,6288.75
2022-08-21T11:09:08.006Z,1023.75
2022-08-21T11:10:07.961Z,1158.75
2022-08-21T11:11:08.665Z,5692.50
2022-08-21T11:12:11.094Z,5968.13
2022-08-21T11:13:07.906Z,6170.63
2022-08-21T11:14:07.845Z,6165.00
2022-08-21T11:15:07.840Z,6052.50
2022-08-21T11:16:07.790Z,2300.63
2022-08-21T11:17:07.766Z,4938.75
2022-08-21T11:18:07.733Z,4072.50
2022-08-21T11:19:07.718Z,5473.13
2022-08-21T11:20:07.677Z,5878.13
2022-08-21T11:21:07.671Z,5821.88
2022-08-21T11:22:07.632Z,5596.88
2022-08-21T11:23:07.885Z,5602.50
2022-08-21T11:24:07.581Z,5473.13
2022-08-21T11:25:07.569Z,1968.75
2022-08-21T11:26:07.557Z,6035.63
2022-08-21T11:27:07.504Z,5523.75
2022-08-21T11:28:09.810Z,5743.13
2022-08-21T11:29:07.444Z,6153.75
2022-08-21T11:30:07.419Z,6401.25
2022-08-21T11:31:07.420Z,6080.63
2022-08-21T11:32:07.389Z,5951.25
2022-08-21T11:33:07.343Z,5973.75
2022-08-21T11:34:07.323Z,6103.13
2022-08-21T11:35:07.299Z,6345.00
2022-08-21T11:36:07.284Z,6716.25
2022-08-21T11:37:07.247Z,6980.63
2022-08-21T11:38:07.400Z,6564.38
2022-08-21T11:39:07.276Z,6648.75
2022-08-21T11:40:07.264Z,6305.63
2022-08-21T11:41:07.161Z,1636.88
2022-08-21T11:42:08.993Z,1822.50
2022-08-21T11:43:07.105Z,1530.00
2022-08-21T11:44:07.110Z,1620.00
2022-08-21T11:45:07.065Z,1513.13
2022-08-21T11:46:07.038Z,1406.25
2022-08-21T11:47:07.013Z,1310.63
2022-08-21T11:48:06.982Z,1288.13
2022-08-21T11:49:06.959Z,1271.25
2022-08-21T11:50:34.105Z,1282.50
2022-08-21T11:51:06.904Z,1305.00
2022-08-21T11:52:06.903Z,1299.38
2022-08-21T11:53:06.855Z,1271.25
2022-08-21T11:54:07.230Z,1282.50
2022-08-21T11:55:06.796Z,1738.13
2022-08-21T11:56:06.798Z,3301.88
2022-08-21T11:57:06.739Z,5191.88
2022-08-21T11:58:06.719Z,7003.13
2022-08-21T11:59:06.712Z,6766.88
2022-08-21T12:00:06.755Z,6485.63
2022-08-21T12:01:06.633Z,6193.13
2022-08-21T12:02:06.637Z,6142.50
2022-08-21T12:03:06.618Z,5917.50
2022-08-21T12:04:06.547Z,5484.38
2022-08-21T12:05:09.149Z,5501.25
2022-08-21T12:06:06.492Z,5838.75
2022-08-21T12:07:06.487Z,5928.75
2022-08-21T12:08:06.445Z,6001.88
2022-08-21T12:09:06.425Z,6210.00
2022-08-21T12:10:06.468Z,6091.88
2022-08-21T12:11:06.377Z,6001.88
2022-08-21T12:12:06.382Z,6238.13
2022-08-21T12:13:06.340Z,6451.88
2022-08-21T12:14:06.309Z,6193.13
2022-08-21T12:15:06.270Z,5681.25
2022-08-21T12:16:06.245Z,5062.50
2022-08-21T12:17:06.218Z,4831.88
2022-08-21T12:18:06.222Z,5175.00
2022-08-21T12:19:06.171Z,5737.50
2022-08-21T12:20:06.192Z,5878.13
2022-08-21T12:21:06.124Z,6013.13
2022-08-21T12:22:06.115Z,6125.63
2022-08-21T12:23:06.093Z,5979.38
2022-08-21T12:24:06.054Z,5810.63
2022-08-21T12:25:06.030Z,5765.63
2022-08-21T12:26:06.019Z,5895.00
2022-08-21T12:27:05.987Z,6125.63
2022-08-21T12:28:06.431Z,6120.00
2022-08-21T12:29:05.940Z,5855.63
2022-08-21T12:30:05.916Z,5686.88
2022-08-21T12:31:05.894Z,4016.25
2022-08-21T12:32:05.874Z,5658.75
2022-08-21T12:33:05.848Z,5805.00
2022-08-21T12:34:05.849Z,5923.13
2022-08-21T12:35:05.807Z,3487.50
2022-08-21T12:36:05.781Z,1462.50
2022-08-21T12:37:05.759Z,1237.50
2022-08-21T12:38:05.741Z,1186.88
2022-08-21T12:39:05.726Z,1186.88
2022-08-21T12:40:05.821Z,1091.25
2022-08-21T12:41:05.676Z,1063.13
2022-08-21T12:42:05.641Z,1158.75
2022-08-21T12:43:05.954Z,4201.88
2022-08-21T12:44:05.598Z,5821.88